Parkers Lake, Kentucky
Current Conditions -  °F | °C
As of 3:35 AM on Sunday 23 Nov 2014 (Local Time) from KSME Reporting Station
Broken Clouds Broken Clouds  
Wind Chill: 46°   Ceiling: 5000
Heat Index: 46°   Visibility: 10mi
Dew Point: 34°   Wind: 0mph
Humidity: 62%   Direction: NA
Pressure: 30.08"   Gusts: NA
Location:  36.84°N, 84.48°W
Report Text: KSME 230835Z AUTO 00000KT 10SM BKN050 BKN100 08/01 A3008 RMK AO2
Loading
Personal Weather Stations






























Interactive Weather Map New forecast layout! Learn more

10-Day Weather Forecast

Advertisements
Track Severe Weather on mobile